Wilson Algeciras — 9HA2471 — position and weather

sailwx.info

Track history (hours):
 
Tides and Currents Weather Stations Pressure Air Temp Water Temp Dewpoint Dewpoint Depression Visibility Wind Speed Wind Dir Waves Ship Positions

Wilson Algeciras

Last reported at 2016-Jun-26 07:32 UTC. Time now 2016-Jun-26 08:19 UTC.
Position N 45°27' E 012°14'.

Length 88 m; draft 3 m.

Type: Ship. MMSI: 248689000.

Date/timePositionNaut miles runAvg speedWind from/ knotsBaromVisibWave heightAir tempDewpointWater temp
2016-Jun-26 07:32N 45°27' E 012°14'0 0.0
2016-Jun-26 06:32N 45°27' E 012°14'0 0.0
2016-Jun-26 05:32N 45°27' E 012°14'0 0.0
2016-Jun-26 04:32N 45°27' E 012°14'0 0.0
2016-Jun-26 03:32N 45°27' E 012°14'0 0.0
2016-Jun-26 02:32N 45°27' E 012°14'0 0.0
2016-Jun-26 01:32N 45°27' E 012°14'0 0.0
2016-Jun-26 00:32N 45°27' E 012°14'0 0.0
2016-Jun-25 23:32N 45°27' E 012°14'0 0.0
2016-Jun-25 22:32N 45°27' E 012°14'0 0.0
2016-Jun-25 21:32N 45°27' E 012°14'0 0.0
2016-Jun-25 20:32N 45°27' E 012°14'0 0.0
2016-Jun-25 19:32N 45°27' E 012°14'0 0.0
2016-Jun-25 18:32N 45°27' E 012°14'0 0.0
2016-Jun-25 17:32N 45°27' E 012°14'0 0.0
2016-Jun-25 16:32N 45°27' E 012°14'0 0.0
2016-Jun-25 15:32N 45°27' E 012°14'0 0.0
2016-Jun-25 14:32N 45°27' E 012°14'0 0.0
2016-Jun-25 13:32N 45°27' E 012°14'0 0.0
2016-Jun-25 12:32N 45°27' E 012°14'0 0.0
2016-Jun-25 11:29N 45°27' E 012°14'0 0.0
2016-Jun-25 10:32N 45°27' E 012°14'0 0.0
2016-Jun-25 09:32N 45°27' E 012°14'0 0.0
2016-Jun-25 08:32N 45°27' E 012°14'0 0.0
2016-Jun-25 07:32N 45°27' E 012°14'0 0.0
2016-Jun-25 06:32N 45°27' E 012°14'0 0.0
2016-Jun-25 05:26N 45°27' E 012°14'0 0.0
2016-Jun-25 04:32N 45°27' E 012°14'0 0.0
2016-Jun-25 03:32N 45°27' E 012°14'0 0.0
2016-Jun-25 02:32N 45°27' E 012°14'0 0.0
2016-Jun-25 01:32N 45°27' E 012°14'0 0.0
2016-Jun-25 00:32N 45°27' E 012°14'0 0.0
2016-Jun-24 23:32N 45°27' E 012°14'0 0.0
2016-Jun-24 22:32N 45°27' E 012°14'0 0.0
2016-Jun-24 21:32N 45°27' E 012°14'0 0.0
2016-Jun-24 20:29N 45°27' E 012°14'0 0.0
2016-Jun-24 19:32N 45°27' E 012°14'0 0.0
2016-Jun-24 18:32N 45°27' E 012°14'0 0.0
2016-Jun-24 17:32N 45°27' E 012°14'0 0.0
2016-Jun-24 16:32N 45°27' E 012°14'0 0.0
2016-Jun-24 15:33N 45°27' E 012°14'0 0.0
2016-Jun-24 14:32N 45°27' E 012°14'0 0.0
2016-Jun-24 13:29N 45°27' E 012°14'0 0.0
2016-Jun-24 12:32N 45°27' E 012°14'0 0.0
2016-Jun-24 11:32N 45°27' E 012°14'0 0.0
2016-Jun-24 10:32N 45°27' E 012°14'0 0.0
2016-Jun-24 09:32N 45°27' E 012°14'0 0.0
2016-Jun-24 08:32N 45°27' E 012°14'0 0.0
2016-Jun-24 07:32N 45°27' E 012°14'6 2.0
2016-Jun-24 04:34N 45°21' E 012°15'5 4.8
2016-Jun-24 03:33N 45°20' E 012°22'0 0.0
2016-Jun-24 02:24N 45°20' E 012°22'0 0.0
2016-Jun-24 01:33N 45°20' E 012°22'0 0.0
2016-Jun-24 00:33N 45°20' E 012°22'0 0.0
2016-Jun-23 23:33N 45°20' E 012°22'0 0.0
2016-Jun-23 22:33N 45°20' E 012°22'0 0.0
2016-Jun-23 21:33N 45°20' E 012°22'0 0.0
2016-Jun-23 20:27N 45°20' E 012°22'0 0.0
2016-Jun-23 19:33N 45°20' E 012°22'0 0.0
2016-Jun-23 18:33N 45°20' E 012°22'0 0.1
2016-Jun-23 17:34N 45°20' E 012°22'7 6.7
2016-Jun-23 16:33N 45°18' E 012°31'1010.4
2016-Jun-23 15:34N 45°22' E 012°45'1110.6
2016-Jun-23 14:33N 45°26' E 012°58'18 0.5
2016-Jun-22 03:33N 45°30' E 013°23'9 9.4
2016-Jun-22 02:33N 45°24' E 013°14'9 9.3
2016-Jun-22 01:34N 45°15' E 013°15'9 9.4
2016-Jun-22 00:33N 45°05' E 013°19'9 9.3
2016-Jun-21 23:33N 44°57' E 013°24'10 9.6
2016-Jun-21 22:33N 44°48' E 013°31'19 9.4
2016-Jun-21 20:33N 44°33' E 013°45'9 9.4
2016-Jun-21 19:34N 44°25' E 013°52'19 9.4
2016-Jun-21 17:33N 44°09' E 014°06'  
2016-Jun-19 08:23N 37°27' E 020°55'143 8.0
2016-Jun-18 14:33N 36°34' E 023°41'  
Track history (hours):
 
Tides and Currents Weather Stations Pressure Air Temp Water Temp Dewpoint Dewpoint Depression Visibility Wind Speed Wind Dir Waves Ship Positions

Wilson Algeciras

Last reported at 2016-Jun-26 07:32 UTC. Time now 2016-Jun-26 08:19 UTC.
Position N 45°27' E 012°14'.

Length 88 m; draft 3 m.

Type: Ship. MMSI: 248689000.

Date/timePositionNaut miles runAvg speedWind from/ knotsBaromVisibWave heightAir tempDewpointWater temp
2016-Jun-26 07:32N 45°27' E 012°14'0 0.0
2016-Jun-26 06:32N 45°27' E 012°14'0 0.0
2016-Jun-26 05:32N 45°27' E 012°14'0 0.0
2016-Jun-26 04:32N 45°27' E 012°14'0 0.0
2016-Jun-26 03:32N 45°27' E 012°14'0 0.0
2016-Jun-26 02:32N 45°27' E 012°14'0 0.0
2016-Jun-26 01:32N 45°27' E 012°14'0 0.0
2016-Jun-26 00:32N 45°27' E 012°14'0 0.0
2016-Jun-25 23:32N 45°27' E 012°14'0 0.0
2016-Jun-25 22:32N 45°27' E 012°14'0 0.0
2016-Jun-25 21:32N 45°27' E 012°14'0 0.0
2016-Jun-25 20:32N 45°27' E 012°14'0 0.0
2016-Jun-25 19:32N 45°27' E 012°14'0 0.0
2016-Jun-25 18:32N 45°27' E 012°14'0 0.0
2016-Jun-25 17:32N 45°27' E 012°14'0 0.0
2016-Jun-25 16:32N 45°27' E 012°14'0 0.0
2016-Jun-25 15:32N 45°27' E 012°14'0 0.0
2016-Jun-25 14:32N 45°27' E 012°14'0 0.0
2016-Jun-25 13:32N 45°27' E 012°14'0 0.0
2016-Jun-25 12:32N 45°27' E 012°14'0 0.0
2016-Jun-25 11:29N 45°27' E 012°14'0 0.0
2016-Jun-25 10:32N 45°27' E 012°14'0 0.0
2016-Jun-25 09:32N 45°27' E 012°14'0 0.0
2016-Jun-25 08:32N 45°27' E 012°14'0 0.0
2016-Jun-25 07:32N 45°27' E 012°14'0 0.0
2016-Jun-25 06:32N 45°27' E 012°14'0 0.0
2016-Jun-25 05:26N 45°27' E 012°14'0 0.0
2016-Jun-25 04:32N 45°27' E 012°14'0 0.0
2016-Jun-25 03:32N 45°27' E 012°14'0 0.0
2016-Jun-25 02:32N 45°27' E 012°14'0 0.0
2016-Jun-25 01:32N 45°27' E 012°14'0 0.0
2016-Jun-25 00:32N 45°27' E 012°14'0 0.0
2016-Jun-24 23:32N 45°27' E 012°14'0 0.0
2016-Jun-24 22:32N 45°27' E 012°14'0 0.0
2016-Jun-24 21:32N 45°27' E 012°14'0 0.0
2016-Jun-24 20:29N 45°27' E 012°14'0 0.0
2016-Jun-24 19:32N 45°27' E 012°14'0 0.0
2016-Jun-24 18:32N 45°27' E 012°14'0 0.0
2016-Jun-24 17:32N 45°27' E 012°14'0 0.0
2016-Jun-24 16:32N 45°27' E 012°14'0 0.0
2016-Jun-24 15:33N 45°27' E 012°14'0 0.0
2016-Jun-24 14:32N 45°27' E 012°14'0 0.0
2016-Jun-24 13:29N 45°27' E 012°14'0 0.0
2016-Jun-24 12:32N 45°27' E 012°14'0 0.0
2016-Jun-24 11:32N 45°27' E 012°14'0 0.0
2016-Jun-24 10:32N 45°27' E 012°14'0 0.0
2016-Jun-24 09:32N 45°27' E 012°14'0 0.0
2016-Jun-24 08:32N 45°27' E 012°14'0 0.0
2016-Jun-24 07:32N 45°27' E 012°14'6 2.0
2016-Jun-24 04:34N 45°21' E 012°15'5 4.8
2016-Jun-24 03:33N 45°20' E 012°22'0 0.0
2016-Jun-24 02:24N 45°20' E 012°22'0 0.0
2016-Jun-24 01:33N 45°20' E 012°22'0 0.0
2016-Jun-24 00:33N 45°20' E 012°22'0 0.0
2016-Jun-23 23:33N 45°20' E 012°22'0 0.0
2016-Jun-23 22:33N 45°20' E 012°22'0 0.0
2016-Jun-23 21:33N 45°20' E 012°22'0 0.0
2016-Jun-23 20:27N 45°20' E 012°22'0 0.0
2016-Jun-23 19:33N 45°20' E 012°22'0 0.0
2016-Jun-23 18:33N 45°20' E 012°22'0 0.1
2016-Jun-23 17:34N 45°20' E 012°22'7 6.7
2016-Jun-23 16:33N 45°18' E 012°31'1010.4
2016-Jun-23 15:34N 45°22' E 012°45'1110.6
2016-Jun-23 14:33N 45°26' E 012°58'18 0.5
2016-Jun-22 03:33N 45°30' E 013°23'9 9.4
2016-Jun-22 02:33N 45°24' E 013°14'9 9.3
2016-Jun-22 01:34N 45°15' E 013°15'9 9.4
2016-Jun-22 00:33N 45°05' E 013°19'9 9.3
2016-Jun-21 23:33N 44°57' E 013°24'10 9.6
2016-Jun-21 22:33N 44°48' E 013°31'19 9.4
2016-Jun-21 20:33N 44°33' E 013°45'9 9.4
2016-Jun-21 19:34N 44°25' E 013°52'19 9.4
2016-Jun-21 17:33N 44°09' E 014°06'  
2016-Jun-19 08:23N 37°27' E 020°55'143 8.0
2016-Jun-18 14:33N 36°34' E 023°41'  

Dump ship's entire track history